Time;durP1;ratioP1;P1;durP2;ratioP2;P2;SDS_P1;SDS_P2;PMS_P1;PMS_P2;Temp;Humidity;BMP_temperature;BMP_pressure;BME280_temperature;BME280_humidity;BME280_pressure;Samples;Min_cycle;Max_cycle;Signal;HPM_P1;HPM_P2
2022/12/14 00:01:25;;;;;;;12.20;7.87;;;-3.30;69.80;;;;;;5054475;28;20470;-63
2022/12/14 00:03:52;;;;;;;11.97;8.03;;;-3.20;69.80;;;;;;5047550;28;20207;-63
2022/12/14 00:06:21;;;;;;;13.10;8.00;;;-3.20;69.60;;;;;;5046613;28;20444;-62
2022/12/14 00:08:48;;;;;;;11.67;8.07;;;-3.20;69.60;;;;;;5050640;28;20460;-63
2022/12/14 00:11:14;;;;;;;11.20;6.83;;;-3.20;69.30;;;;;;5046967;28;20450;-63
2022/12/14 00:13:41;;;;;;;16.60;8.37;;;-3.20;69.50;;;;;;5052620;28;20493;-63
2022/12/14 00:16:12;;;;;;;12.33;7.07;;;-3.20;68.90;;;;;;5046675;28;20449;-63
2022/12/14 00:18:39;;;;;;;16.93;7.97;;;-3.20;69.00;;;;;;5036337;28;20443;-63
2022/12/14 00:21:13;;;;;;;12.00;7.83;;;-3.20;68.20;;;;;;5042999;28;20432;-63
2022/12/14 00:23:40;;;;;;;15.77;8.10;;;-3.20;68.70;;;;;;5049259;28;20433;-63
2022/12/14 00:26:14;;;;;;;11.83;7.60;;;-3.20;68.40;;;;;;5037386;28;20438;-63
2022/12/14 00:28:41;;;;;;;12.47;8.07;;;-3.20;68.30;;;;;;5052168;28;20461;-63
2022/12/14 00:31:07;;;;;;;12.37;7.93;;;-3.20;68.90;;;;;;5024902;28;20932;-63
2022/12/14 00:33:34;;;;;;;11.97;7.60;;;-3.20;69.00;;;;;;5052648;28;20474;-63
2022/12/14 00:36:01;;;;;;;15.67;8.83;;;-3.20;68.60;;;;;;5051835;28;20189;-62
2022/12/14 00:38:27;;;;;;;11.60;7.57;;;-3.20;68.60;;;;;;5032266;28;20524;-63
2022/12/14 00:40:54;;;;;;;10.57;7.70;;;-3.20;68.30;;;;;;5044390;28;20433;-62
2022/12/14 00:43:20;;;;;;;12.87;7.53;;;-3.20;67.60;;;;;;5032578;28;20431;-63
2022/12/14 00:45:46;;;;;;;12.27;7.40;;;-3.20;67.90;;;;;;5031867;28;20490;-63
2022/12/14 00:48:12;;;;;;;13.40;7.47;;;-3.20;67.80;;;;;;5016540;28;20442;-63
2022/12/14 00:50:38;;;;;;;11.23;7.77;;;-3.20;68.30;;;;;;5050996;28;20730;-63
2022/12/14 00:53:04;;;;;;;11.97;8.30;;;-3.20;68.40;;;;;;5036772;28;20568;-63
2022/12/14 00:55:35;;;;;;;10.37;7.70;;;-3.20;68.20;;;;;;5035506;28;20430;-63
2022/12/14 00:58:00;;;;;;;11.53;8.17;;;-3.20;68.30;;;;;;5032892;28;20468;-62
2022/12/14 01:00:26;;;;;;;13.50;8.57;;;-3.20;68.00;;;;;;5034036;28;20433;-62
2022/12/14 01:02:52;;;;;;;12.50;8.70;;;-3.20;67.80;;;;;;5032983;28;20192;-63
2022/12/14 01:05:17;;;;;;;11.50;7.83;;;-3.20;67.30;;;;;;5032215;28;20194;-63
2022/12/14 01:07:43;;;;;;;12.00;7.63;;;-3.20;68.20;;;;;;5046102;28;20207;-63
2022/12/14 01:10:09;;;;;;;12.40;7.83;;;-3.30;67.70;;;;;;5049519;28;20719;-62
2022/12/14 01:12:34;;;;;;;13.53;8.13;;;-3.20;68.30;;;;;;5064149;28;20265;-63
2022/12/14 01:15:00;;;;;;;12.47;7.73;;;-3.20;68.80;;;;;;5023578;28;20192;-63
2022/12/14 01:17:26;;;;;;;11.40;8.03;;;-3.20;68.30;;;;;;5023238;28;20299;-63
2022/12/14 01:19:51;;;;;;;11.47;8.30;;;-3.20;68.30;;;;;;5051291;28;20183;-63
2022/12/14 01:22:17;;;;;;;11.60;7.63;;;-3.20;68.50;;;;;;5038219;28;20194;-63
2022/12/14 01:24:43;;;;;;;14.77;8.30;;;-3.20;68.90;;;;;;5048332;28;20188;-62
2022/12/14 01:27:09;;;;;;;10.53;7.27;;;-3.20;69.20;;;;;;5032043;28;20193;-62
2022/12/14 01:29:35;;;;;;;11.50;7.63;;;-3.20;69.20;;;;;;5039725;28;20443;-63
2022/12/14 01:32:01;;;;;;;15.40;8.97;;;-3.20;68.60;;;;;;5034637;28;20203;-63
2022/12/14 01:34:27;;;;;;;13.50;9.30;;;-3.20;68.90;;;;;;5054067;28;21227;-62
2022/12/14 01:36:52;;;;;;;11.57;8.00;;;-3.20;69.40;;;;;;5054854;28;20211;-63
2022/12/14 01:39:18;;;;;;;17.00;8.90;;;-3.20;69.20;;;;;;5037580;28;20188;-63
2022/12/14 01:41:51;;;;;;;11.67;7.47;;;-3.20;69.40;;;;;;5046782;28;20199;-63
2022/12/14 01:44:17;;;;;;;16.13;8.20;;;-3.20;69.40;;;;;;5024942;28;20187;-63
2022/12/14 01:46:42;;;;;;;14.80;9.30;;;-3.10;69.00;;;;;;5054402;28;20437;-63
2022/12/14 01:49:42;;;;;;;14.13;8.80;;;-3.10;69.00;;;;;;5054426;28;20199;-63
2022/12/14 01:52:41;;;;;;;14.63;9.37;;;-3.10;69.40;;;;;;5071385;28;20211;-63
2022/12/14 01:55:19;;;;;;;14.70;8.97;;;-3.10;69.10;;;;;;5048701;28;20421;-63
2022/12/14 01:57:58;;;;;;;13.07;8.67;;;-3.10;69.20;;;;;;5085985;28;20431;-63
2022/12/14 02:00:23;;;;;;;12.63;8.67;;;-3.00;69.40;;;;;;5053888;28;20426;-62
2022/12/14 02:03:01;;;;;;;15.37;9.27;;;-3.00;69.40;;;;;;5054704;28;20512;-63
2022/12/14 02:05:28;;;;;;;14.70;9.07;;;-3.10;69.00;;;;;;5054744;28;20184;-63
2022/12/14 02:07:54;;;;;;;12.80;8.60;;;-3.10;69.40;;;;;;5047634;28;20458;-63
2022/12/14 02:10:23;;;;;;;14.07;8.57;;;-3.10;69.70;;;;;;5037732;28;20435;-63
2022/12/14 02:12:52;;;;;;;11.83;7.33;;;-3.10;69.50;;;;;;5050918;28;20462;-62
2022/12/14 02:15:18;;;;;;;11.93;7.87;;;-3.10;69.60;;;;;;5053657;28;20426;-63
2022/12/14 02:17:45;;;;;;;12.40;8.43;;;-3.10;69.20;;;;;;5025856;28;20477;-62
2022/12/14 02:20:13;;;;;;;11.27;8.07;;;-3.10;69.10;;;;;;5065600;28;20212;-63
2022/12/14 02:23:09;;;;;;;12.00;7.93;;;-3.10;69.10;;;;;;5053570;28;20438;-63
2022/12/14 02:25:46;;;;;;;13.23;8.07;;;-3.00;69.20;;;;;;5028908;28;20446;-63
2022/12/14 02:28:47;;;;;;;11.83;8.03;;;-3.20;69.40;;;;;;5058563;28;20439;-63
2022/12/14 02:31:31;;;;;;;11.10;7.87;;;-3.10;69.30;;;;;;5086381;28;20438;-62
2022/12/14 02:34:17;;;;;;;12.17;7.37;;;-3.10;69.60;;;;;;5048102;28;20704;-63
2022/12/14 02:36:56;;;;;;;10.23;7.20;;;-3.00;69.50;;;;;;5051153;28;20442;-63
2022/12/14 02:39:41;;;;;;;11.63;7.73;;;-3.00;69.40;;;;;;5044054;28;20439;-63
2022/12/14 02:42:18;;;;;;;12.57;8.40;;;-3.00;69.40;;;;;;5052753;28;20533;-63
2022/12/14 02:45:15;;;;;;;10.20;7.20;;;-3.00;69.70;;;;;;5073442;28;20608;-63
2022/12/14 02:47:54;;;;;;;13.83;8.50;;;-3.00;69.40;;;;;;5050995;28;20436;-63
2022/12/14 02:50:32;;;;;;;10.37;7.00;;;-3.00;70.00;;;;;;5047715;28;20432;-63
2022/12/14 02:53:22;;;;;;;10.53;7.63;;;-3.00;70.00;;;;;;5048606;28;20971;-63
2022/12/14 02:55:53;;;;;;;12.93;8.17;;;-2.90;69.80;;;;;;5045949;28;20441;-63
2022/12/14 02:58:18;;;;;;;10.20;7.07;;;-2.90;69.60;;;;;;5072890;28;20426;-62
2022/12/14 03:00:45;;;;;;;10.80;8.10;;;-2.90;69.10;;;;;;5042950;28;20576;-63
2022/12/14 03:03:11;;;;;;;10.00;7.23;;;-2.90;68.90;;;;;;5036990;28;20264;-63
2022/12/14 03:05:36;;;;;;;18.03;9.07;;;-3.00;68.90;;;;;;5052222;28;20511;-63
2022/12/14 03:08:07;;;;;;;10.63;7.67;;;-3.00;69.10;;;;;;5037170;28;20698;-63
2022/12/14 03:10:54;;;;;;;13.23;8.53;;;-3.00;69.80;;;;;;5082181;28;20219;-62
2022/12/14 03:13:36;;;;;;;10.30;7.70;;;-3.00;70.00;;;;;;5048637;28;20469;-63
2022/12/14 03:16:17;;;;;;;13.80;8.67;;;-3.00;70.10;;;;;;5052275;28;20418;-63
2022/12/14 03:18:54;;;;;;;10.80;7.13;;;-2.90;69.60;;;;;;5053537;28;20428;-62
2022/12/14 03:21:27;;;;;;;10.73;6.80;;;-3.00;69.80;;;;;;5047145;28;20518;-63
2022/12/14 03:23:55;;;;;;;13.50;8.30;;;-2.90;69.60;;;;;;5052694;28;20439;-62
2022/12/14 03:26:26;;;;;;;11.67;7.57;;;-2.90;69.90;;;;;;5053178;28;20462;-62
2022/12/14 03:28:59;;;;;;;13.00;8.13;;;-2.90;69.80;;;;;;5048623;28;20436;-62
2022/12/14 03:31:32;;;;;;;13.67;8.20;;;-2.90;69.70;;;;;;5047121;28;20426;-62
2022/12/14 03:34:00;;;;;;;11.10;6.97;;;-2.90;69.20;;;;;;5045462;28;20469;-63
2022/12/14 03:36:39;;;;;;;12.03;7.80;;;-3.00;69.20;;;;;;5044138;28;20433;-63
2022/12/14 03:39:08;;;;;;;11.67;8.37;;;-2.90;69.10;;;;;;5053927;28;20433;-62
2022/12/14 03:41:42;;;;;;;14.27;8.43;;;-2.90;69.20;;;;;;5046236;28;20447;-63
2022/12/14 03:44:26;;;;;;;12.43;8.23;;;-2.90;69.30;;;;;;5054675;28;20482;-63
2022/12/14 03:47:02;;;;;;;14.23;8.80;;;-2.90;69.50;;;;;;5044147;28;20449;-63
2022/12/14 03:49:39;;;;;;;13.43;8.70;;;-2.90;69.00;;;;;;5066249;28;20442;-63
2022/12/14 03:52:18;;;;;;;11.90;7.37;;;-2.90;69.60;;;;;;5084626;28;20438;-63
2022/12/14 03:54:54;;;;;;;11.27;8.10;;;-2.90;69.50;;;;;;5048756;28;20445;-63
2022/12/14 03:57:38;;;;;;;11.10;8.20;;;-2.90;69.30;;;;;;5039751;28;20488;-62
2022/12/14 04:00:10;;;;;;;11.73;7.30;;;-2.90;69.30;;;;;;5043118;28;20433;-63
2022/12/14 04:02:39;;;;;;;15.33;8.20;;;-2.90;69.10;;;;;;5051179;28;20424;-63
2022/12/14 04:05:11;;;;;;;13.33;8.07;;;-2.80;69.00;;;;;;5049385;28;20967;-63
2022/12/14 04:07:58;;;;;;;13.40;7.33;;;-2.90;69.30;;;;;;5051428;28;20421;-63
2022/12/14 04:19:01;;;;;;;15.37;8.57;;;-2.80;69.70;;;;;;5042388;28;20422;-63
2022/12/14 04:21:51;;;;;;;12.33;8.00;;;-2.80;69.80;;;;;;5052068;28;20424;-63
2022/12/14 04:27:38;;;;;;;12.27;8.07;;;-2.80;69.40;;;;;;5042916;28;20424;-63
2022/12/14 04:30:05;;;;;;;11.13;8.20;;;-2.80;69.60;;;;;;5046963;28;20828;-64
2022/12/14 04:32:50;;;;;;;12.00;7.10;;;-2.80;69.90;;;;;;5040404;28;20474;-64
2022/12/14 04:35:19;;;;;;;10.23;6.93;;;-2.90;69.80;;;;;;5050288;28;20442;-64
2022/12/14 04:37:50;;;;;;;11.63;7.97;;;-2.80;69.80;;;;;;5038477;28;20408;-64
2022/12/14 04:40:26;;;;;;;10.37;6.00;;;-2.80;70.00;;;;;;5052094;28;20951;-64
2022/12/14 04:43:05;;;;;;;10.77;7.20;;;-2.80;70.00;;;;;;5049387;28;20465;-64
2022/12/14 04:45:40;;;;;;;10.27;7.73;;;-2.80;69.80;;;;;;5054026;28;20489;-64
2022/12/14 04:48:22;;;;;;;11.37;8.07;;;-2.80;69.60;;;;;;5047435;28;20431;-64
2022/12/14 04:51:13;;;;;;;10.97;7.93;;;-2.80;70.00;;;;;;5050226;28;20476;-64
2022/12/14 04:53:44;;;;;;;12.57;7.87;;;-2.80;69.80;;;;;;5045508;28;20462;-64
2022/12/14 04:56:21;;;;;;;12.50;8.40;;;-2.70;69.70;;;;;;5042361;28;20449;-64
2022/12/14 04:58:47;;;;;;;13.93;8.03;;;-2.70;69.80;;;;;;5056039;28;20435;-64
2022/12/14 05:01:27;;;;;;;11.67;8.77;;;-2.70;69.80;;;;;;5071246;28;20544;-64
2022/12/14 05:04:11;;;;;;;11.90;8.03;;;-2.70;70.00;;;;;;5043437;28;20837;-64
2022/12/14 05:06:48;;;;;;;11.63;7.20;;;-2.80;70.50;;;;;;5055701;28;20595;-64
2022/12/14 05:09:13;;;;;;;11.93;7.77;;;-2.80;70.20;;;;;;5052522;28;20425;-64
2022/12/14 05:12:07;;;;;;;12.20;8.23;;;-2.80;70.00;;;;;;5059869;28;20441;-64
2022/12/14 05:14:59;;;;;;;11.40;8.13;;;-2.70;69.60;;;;;;5048547;28;20647;-64
2022/12/14 05:17:25;;;;;;;14.37;9.47;;;-2.80;70.30;;;;;;5044178;28;20505;-64
2022/12/14 05:19:53;;;;;;;13.80;9.23;;;-2.70;70.90;;;;;;5043781;28;20423;-64
2022/12/14 05:22:19;;;;;;;12.00;7.60;;;-2.70;70.70;;;;;;5023314;28;20447;-64
2022/12/14 05:24:45;;;;;;;15.77;10.37;;;-2.70;70.50;;;;;;5044051;28;20575;-64
2022/12/14 05:27:11;;;;;;;13.57;8.43;;;-2.70;70.60;;;;;;5024175;28;20506;-64
2022/12/14 05:29:36;;;;;;;11.83;8.13;;;-2.60;70.30;;;;;;5041017;28;20192;-64
2022/12/14 05:32:03;;;;;;;9.73;6.80;;;-2.60;70.50;;;;;;5025029;28;20188;-64
2022/12/14 05:34:29;;;;;;;11.37;7.83;;;-2.60;70.40;;;;;;5032016;28;20201;-64
2022/12/14 05:36:55;;;;;;;14.27;8.97;;;-2.60;70.10;;;;;;5036991;28;20437;-64
2022/12/14 05:39:20;;;;;;;15.50;8.57;;;-2.60;70.30;;;;;;5034772;28;20417;-64
2022/12/14 05:41:46;;;;;;;11.83;7.83;;;-2.70;70.10;;;;;;5015805;28;20198;-64
2022/12/14 05:44:12;;;;;;;15.50;8.80;;;-2.70;70.60;;;;;;5027672;28;20187;-64
2022/12/14 05:46:37;;;;;;;13.73;8.83;;;-2.60;70.40;;;;;;5017074;28;20216;-64
2022/12/14 05:49:03;;;;;;;12.70;8.77;;;-2.60;70.40;;;;;;5019180;28;20187;-64
2022/12/14 05:51:29;;;;;;;13.80;9.50;;;-2.60;70.30;;;;;;5028146;28;20188;-64
2022/12/14 05:53:56;;;;;;;13.10;7.70;;;-2.60;70.20;;;;;;5048854;28;20278;-64
2022/12/14 05:56:22;;;;;;;15.67;9.33;;;-2.60;70.30;;;;;;5031645;28;20652;-64
2022/12/14 05:58:49;;;;;;;13.77;8.43;;;-2.60;70.20;;;;;;5039291;28;20444;-64
2022/12/14 06:01:15;;;;;;;14.30;9.23;;;-2.60;70.00;;;;;;5055779;28;20191;-64
2022/12/14 06:03:41;;;;;;;10.27;7.23;;;-2.60;70.00;;;;;;5031764;28;20473;-64
2022/12/14 06:06:09;;;;;;;11.47;7.47;;;-2.60;70.10;;;;;;5035738;28;20190;-64
2022/12/14 06:08:36;;;;;;;15.03;9.67;;;-2.60;70.00;;;;;;5042636;28;20189;-64
2022/12/14 06:11:08;;;;;;;14.33;8.90;;;-2.60;70.00;;;;;;5026236;28;20493;-64
2022/12/14 06:13:35;;;;;;;15.67;9.47;;;-2.60;70.30;;;;;;5050794;28;20474;-64
2022/12/14 06:16:16;;;;;;;13.70;9.17;;;-2.60;70.60;;;;;;5049259;28;20441;-64
2022/12/14 06:18:43;;;;;;;13.83;9.30;;;-2.70;70.80;;;;;;5049972;28;20422;-65
2022/12/14 06:21:09;;;;;;;17.60;9.77;;;-2.60;70.80;;;;;;5047044;28;20433;-64
2022/12/14 06:23:35;;;;;;;12.50;9.03;;;-2.60;71.10;;;;;;5049874;28;20435;-64
2022/12/14 06:26:01;;;;;;;18.13;10.10;;;-2.60;70.90;;;;;;5027016;28;20437;-65
2022/12/14 06:28:26;;;;;;;15.77;9.50;;;-2.50;70.40;;;;;;5031396;28;20193;-64
2022/12/14 06:30:52;;;;;;;15.00;9.53;;;-2.50;70.50;;;;;;5022464;28;20203;-64
2022/12/14 06:33:18;;;;;;;17.23;9.87;;;-2.50;70.50;;;;;;5027197;28;20291;-65
2022/12/14 06:35:44;;;;;;;14.17;9.33;;;-2.50;70.10;;;;;;5032001;28;20212;-63
2022/12/14 06:38:11;;;;;;;15.63;9.73;;;-2.50;70.10;;;;;;5046722;28;20191;-64
2022/12/14 06:40:37;;;;;;;16.10;9.20;;;-2.40;70.00;;;;;;5037868;28;20430;-64
2022/12/14 06:43:02;;;;;;;14.30;8.43;;;-2.40;69.90;;;;;;5035527;28;20448;-64
2022/12/14 06:45:29;;;;;;;14.83;9.47;;;-2.30;69.90;;;;;;5031971;28;20239;-62
2022/12/14 06:47:54;;;;;;;13.63;9.07;;;-2.40;69.10;;;;;;5039083;28;20662;-64
2022/12/14 06:50:20;;;;;;;15.10;9.60;;;-2.40;69.10;;;;;;5030696;28;20447;-63
2022/12/14 06:52:50;;;;;;;19.00;9.77;;;-2.30;69.30;;;;;;5040633;28;20221;-63
2022/12/14 06:55:16;;;;;;;17.20;9.67;;;-2.30;69.80;;;;;;5035132;28;20183;-63
2022/12/14 06:57:42;;;;;;;13.60;9.27;;;-2.50;69.80;;;;;;5037289;28;20441;-63
2022/12/14 07:00:12;;;;;;;14.53;9.57;;;-2.40;69.60;;;;;;5053738;28;20441;-63
2022/12/14 07:02:38;;;;;;;17.40;10.60;;;-2.30;69.50;;;;;;5039993;28;20449;-63
2022/12/14 07:05:05;;;;;;;15.43;9.97;;;-2.30;69.60;;;;;;5052278;28;20428;-63
2022/12/14 07:07:34;;;;;;;15.10;10.50;;;-2.30;69.80;;;;;;5053033;28;20460;-63
2022/12/14 07:10:01;;;;;;;12.87;8.40;;;-2.30;69.30;;;;;;5048023;28;20445;-63
2022/12/14 07:12:27;;;;;;;15.10;9.53;;;-2.20;69.20;;;;;;5019389;28;20478;-64
2022/12/14 07:14:53;;;;;;;14.97;8.47;;;-2.10;68.60;;;;;;5027749;28;20434;-64
2022/12/14 07:17:19;;;;;;;14.50;9.07;;;-2.10;68.60;;;;;;5024951;28;20184;-64
2022/12/14 07:19:45;;;;;;;17.03;9.90;;;-2.10;68.80;;;;;;5052210;28;20428;-64
2022/12/14 07:22:11;;;;;;;15.87;10.03;;;-2.00;68.70;;;;;;5052620;28;20457;-64
2022/12/14 07:24:37;;;;;;;14.33;9.50;;;-2.10;68.90;;;;;;5052940;28;20455;-63
2022/12/14 07:27:03;;;;;;;14.33;9.90;;;-2.10;69.50;;;;;;5052811;28;20192;-63
2022/12/14 07:29:29;;;;;;;14.50;10.60;;;-2.10;70.10;;;;;;5047855;28;20191;-63
2022/12/14 07:31:55;;;;;;;16.10;10.27;;;-2.10;69.70;;;;;;5031386;28;20538;-63
2022/12/14 07:34:21;;;;;;;16.47;10.93;;;-2.10;69.60;;;;;;5025966;28;20273;-63
2022/12/14 07:36:49;;;;;;;16.77;10.87;;;-2.10;70.00;;;;;;5026926;28;20195;-64
2022/12/14 07:39:15;;;;;;;16.93;10.07;;;-2.00;70.20;;;;;;5027437;28;20195;-64
2022/12/14 07:41:42;;;;;;;14.00;10.73;;;-2.00;69.50;;;;;;5051114;28;20521;-64
2022/12/14 07:44:09;;;;;;;14.13;10.20;;;-1.90;69.40;;;;;;5017731;28;20506;-64
2022/12/14 07:46:34;;;;;;;16.00;10.23;;;-1.90;70.20;;;;;;5037726;28;20482;-64
2022/12/14 07:49:01;;;;;;;15.43;11.73;;;-1.80;70.00;;;;;;5031142;28;20470;-64
2022/12/14 07:51:29;;;;;;;15.23;10.87;;;-1.70;70.00;;;;;;5020664;28;20198;-64
2022/12/14 07:53:56;;;;;;;16.93;11.83;;;-1.60;69.50;;;;;;5037187;28;20482;-63
2022/12/14 07:56:27;;;;;;;21.07;14.17;;;-1.60;69.80;;;;;;5044060;28;20517;-64
2022/12/14 07:58:57;;;;;;;18.47;11.63;;;-1.60;69.60;;;;;;5049828;28;20557;-64
2022/12/14 08:01:29;;;;;;;18.00;13.17;;;-1.60;69.00;;;;;;5038587;28;20450;-64
2022/12/14 08:03:57;;;;;;;21.67;12.40;;;-1.60;69.20;;;;;;5046786;28;20463;-64
2022/12/14 08:06:28;;;;;;;21.33;14.30;;;-1.60;69.80;;;;;;5049039;28;20430;-64
2022/12/14 08:08:54;;;;;;;18.10;12.57;;;-1.60;69.80;;;;;;5049159;28;20477;-63
2022/12/14 08:11:23;;;;;;;18.67;12.57;;;-1.60;70.50;;;;;;5025894;28;20468;-63
2022/12/14 08:13:53;;;;;;;18.80;13.17;;;-1.50;70.20;;;;;;5044701;28;20565;-64
2022/12/14 08:16:19;;;;;;;22.37;14.43;;;-1.50;69.90;;;;;;5051500;28;20520;-63
2022/12/14 08:18:44;;;;;;;36.93;15.20;;;-1.50;69.90;;;;;;5020908;28;20529;-63
2022/12/14 08:21:12;;;;;;;19.23;13.97;;;-1.50;70.90;;;;;;5017799;28;20192;-63
2022/12/14 08:23:40;;;;;;;22.03;14.50;;;-1.40;70.30;;;;;;5034230;28;20674;-63
2022/12/14 08:26:06;;;;;;;20.13;13.90;;;-1.30;70.30;;;;;;5024762;28;20504;-63
2022/12/14 08:28:33;;;;;;;23.03;14.80;;;-1.30;70.50;;;;;;5029725;28;20471;-64
2022/12/14 08:31:04;;;;;;;19.43;14.13;;;-1.20;69.90;;;;;;5048343;28;20494;-63
2022/12/14 08:33:31;;;;;;;21.33;15.10;;;-1.10;69.80;;;;;;5045523;28;20532;-63
2022/12/14 08:36:04;;;;;;;24.53;14.57;;;-1.10;70.00;;;;;;5026015;28;20541;-63
2022/12/14 08:38:29;;;;;;;20.97;14.60;;;-1.10;69.20;;;;;;5016176;28;20436;-63
2022/12/14 08:40:55;;;;;;;23.20;14.90;;;-1.10;69.40;;;;;;5012463;28;20528;-64
2022/12/14 08:43:20;;;;;;;24.10;15.63;;;-1.20;69.70;;;;;;5032797;28;20187;-63
2022/12/14 08:45:46;;;;;;;25.57;15.27;;;-1.10;69.90;;;;;;5042970;28;20249;-63
2022/12/14 08:48:12;;;;;;;24.40;16.07;;;-1.00;69.30;;;;;;5015517;28;20199;-64
2022/12/14 08:50:38;;;;;;;25.03;15.83;;;-1.00;69.40;;;;;;5019380;28;20224;-64
2022/12/14 08:53:04;;;;;;;21.60;15.50;;;-1.00;68.90;;;;;;5017642;28;20511;-65
2022/12/14 08:55:29;;;;;;;25.10;16.80;;;-0.90;67.40;;;;;;5039738;28;20553;-65
2022/12/14 08:57:55;;;;;;;23.07;16.27;;;-1.00;68.00;;;;;;5051444;28;20186;-64
2022/12/14 09:00:21;;;;;;;27.40;17.53;;;-1.00;67.50;;;;;;5033013;28;20199;-64
2022/12/14 09:02:49;;;;;;;25.63;15.60;;;-1.00;68.00;;;;;;5034191;28;20202;-64
2022/12/14 09:05:15;;;;;;;24.20;15.70;;;-1.00;67.50;;;;;;5052243;28;20247;-64
2022/12/14 09:07:41;;;;;;;26.87;16.03;;;-1.00;68.00;;;;;;5035187;28;20433;-64
2022/12/14 09:10:06;;;;;;;22.80;15.77;;;-0.90;68.00;;;;;;5023476;28;20199;-63
2022/12/14 09:12:32;;;;;;;24.57;16.03;;;-0.70;67.60;;;;;;5017537;28;20215;-64
2022/12/14 09:14:58;;;;;;;25.30;14.87;;;-0.70;67.10;;;;;;5042902;28;20330;-64
2022/12/14 09:17:23;;;;;;;25.17;15.53;;;-0.70;66.80;;;;;;5023558;28;20191;-64
2022/12/14 09:19:49;;;;;;;22.13;14.67;;;-0.60;66.50;;;;;;5015164;28;20191;-64
2022/12/14 09:22:15;;;;;;;23.00;16.00;;;-0.60;65.60;;;;;;5033862;28;20222;-64
2022/12/14 09:24:40;;;;;;;21.77;15.30;;;-0.70;66.00;;;;;;5041923;28;20202;-64
2022/12/14 09:27:07;;;;;;;24.87;16.00;;;-0.70;66.50;;;;;;5049066;28;20191;-64
2022/12/14 09:29:33;;;;;;;23.47;15.90;;;-0.60;65.70;;;;;;5024053;28;20290;-64
2022/12/14 09:32:21;;;;;;;25.30;16.07;;;-0.60;65.30;;;;;;5033775;28;20500;-64
2022/12/14 09:34:47;;;;;;;22.73;16.53;;;-0.50;64.80;;;;;;5027921;28;20201;-64
2022/12/14 09:37:13;;;;;;;25.70;15.30;;;-0.40;65.20;;;;;;5021322;28;20448;-64
2022/12/14 09:39:39;;;;;;;27.43;16.17;;;-0.40;65.20;;;;;;5042450;28;20195;-64
2022/12/14 09:42:15;;;;;;;26.33;17.27;;;-0.40;64.60;;;;;;5047970;28;20206;-64
2022/12/14 09:44:55;;;;;;;27.20;17.13;;;-0.30;64.00;;;;;;5048178;28;20285;-64
2022/12/14 09:47:47;;;;;;;27.77;17.10;;;-0.60;64.40;;;;;;5052340;28;20445;-64
2022/12/14 09:50:21;;;;;;;24.67;17.10;;;-0.70;64.90;;;;;;5031707;28;20417;-64
2022/12/14 09:52:53;;;;;;;25.57;15.70;;;-0.80;65.30;;;;;;5065403;28;20461;-64
2022/12/14 09:55:42;;;;;;;22.83;16.10;;;-0.70;65.10;;;;;;5055494;28;20525;-64
2022/12/14 09:58:26;;;;;;;25.63;16.97;;;-0.70;66.10;;;;;;5067892;28;20433;-64
2022/12/14 10:00:58;;;;;;;23.40;16.17;;;-0.50;65.20;;;;;;5049622;28;20434;-64
2022/12/14 10:03:54;;;;;;;27.40;17.93;;;-0.40;65.00;;;;;;5034462;28;20560;-64
2022/12/14 10:06:46;;;;;;;28.97;17.73;;;-0.40;65.00;;;;;;5055545;28;20433;-64
2022/12/14 10:09:39;;;;;;;26.27;17.27;;;-0.30;64.00;;;;;;5047460;28;20457;-63
2022/12/14 10:12:29;;;;;;;24.05;16.75;;;-0.30;64.20;;;;;;5047422;28;20441;-64
2022/12/14 10:15:26;;;;;;;26.57;16.97;;;-0.30;64.60;;;;;;5044947;28;20513;-63
2022/12/14 10:18:25;;;;;;;23.90;16.57;;;-0.20;64.20;;;;;;5049110;28;20474;-63
2022/12/14 10:21:05;;;;;;;27.53;18.57;;;-0.20;64.50;;;;;;5046291;28;20429;-62
2022/12/14 10:23:34;;;;;;;30.80;17.97;;;-0.30;64.00;;;;;;5035526;28;20442;-63
2022/12/14 10:26:06;;;;;;;25.60;16.63;;;-0.30;63.90;;;;;;5039430;28;20573;-63
2022/12/14 10:28:47;;;;;;;26.40;18.43;;;-0.30;64.10;;;;;;5043828;28;20439;-63
2022/12/14 10:31:16;;;;;;;28.37;17.80;;;-0.30;64.00;;;;;;5049382;28;20409;-63
2022/12/14 10:33:45;;;;;;;26.70;17.90;;;-0.30;64.50;;;;;;5050562;28;20530;-63
2022/12/14 10:36:20;;;;;;;30.80;18.30;;;-0.50;64.70;;;;;;5041685;28;20494;-63
2022/12/14 10:38:57;;;;;;;27.00;18.20;;;-0.40;64.60;;;;;;5038557;28;20433;-63
2022/12/14 10:41:32;;;;;;;31.30;18.73;;;-0.30;64.60;;;;;;5043714;28;20580;-64
2022/12/14 10:44:21;;;;;;;27.77;18.20;;;-0.20;65.40;;;;;;5039908;28;20978;-64
2022/12/14 10:47:25;;;;;;;26.03;17.90;;;-0.40;64.50;;;;;;5053347;28;20488;-64
2022/12/14 10:50:03;;;;;;;29.27;17.63;;;-0.40;64.30;;;;;;5050651;28;20432;-63
2022/12/14 10:52:36;;;;;;;30.07;18.73;;;-0.50;64.60;;;;;;5050094;28;20556;-63
2022/12/14 10:55:09;;;;;;;25.40;17.17;;;-0.50;65.00;;;;;;5052831;28;20429;-65
2022/12/14 10:57:34;;;;;;;30.90;19.00;;;-0.30;65.60;;;;;;5054617;28;20840;-64
2022/12/14 11:00:03;;;;;;;22.13;16.40;;;-0.20;64.10;;;;;;5017508;28;20500;-61
2022/12/14 11:02:38;;;;;;;24.53;17.07;;;-0.20;64.30;;;;;;5035334;28;20449;-63
2022/12/14 11:05:30;;;;;;;25.97;17.37;;;-0.10;64.30;;;;;;5052784;28;20472;-63
2022/12/14 11:07:56;;;;;;;28.77;17.40;;;-0.10;64.20;;;;;;5054418;28;20519;-63
2022/12/14 11:10:31;;;;;;;22.93;15.03;;;-0.10;63.90;;;;;;5024949;28;20529;-63
2022/12/14 11:13:15;;;;;;;23.37;16.33;;;-0.10;63.40;;;;;;5034012;28;20220;-63
2022/12/14 11:15:49;;;;;;;27.77;19.50;;;0.00;63.50;;;;;;5042601;28;20435;-63
2022/12/14 11:18:15;;;;;;;26.03;16.83;;;0.10;62.60;;;;;;5053439;28;20437;-63
2022/12/14 11:21:00;;;;;;;27.27;18.87;;;0.20;62.50;;;;;;5052877;28;20425;-63
2022/12/14 11:23:36;;;;;;;31.10;18.23;;;0.20;61.40;;;;;;5052897;28;20202;-63
2022/12/14 11:26:05;;;;;;;24.93;18.13;;;0.10;61.50;;;;;;5039778;28;20449;-63
2022/12/14 11:28:48;;;;;;;26.23;17.10;;;0.10;62.70;;;;;;5047907;28;20490;-63
2022/12/14 11:31:37;;;;;;;27.43;17.13;;;0.20;62.50;;;;;;5041697;28;20449;-63
2022/12/14 11:34:05;;;;;;;26.00;17.77;;;0.20;62.50;;;;;;5038451;28;20465;-63
2022/12/14 11:36:37;;;;;;;26.67;17.80;;;0.30;63.10;;;;;;5050633;28;20485;-63
2022/12/14 11:39:05;;;;;;;26.30;17.13;;;0.30;61.50;;;;;;5048491;28;20440;-63
2022/12/14 11:41:38;;;;;;;32.53;18.50;;;0.30;61.60;;;;;;5061380;28;20445;-63
2022/12/14 11:44:15;;;;;;;29.00;19.63;;;0.30;61.30;;;;;;5050687;28;20455;-63
2022/12/14 11:47:01;;;;;;;23.20;16.67;;;0.30;61.70;;;;;;5043942;28;20445;-63
2022/12/14 11:49:37;;;;;;;22.13;15.83;;;0.30;61.80;;;;;;5049233;28;20429;-63
2022/12/14 11:52:17;;;;;;;27.90;16.00;;;0.30;61.10;;;;;;5049956;28;20543;-63
2022/12/14 11:55:13;;;;;;;24.07;15.43;;;0.40;60.90;;;;;;5047342;28;20437;-63
2022/12/14 11:57:51;;;;;;;26.43;17.27;;;0.60;60.70;;;;;;5049049;28;20425;-63
2022/12/14 12:00:25;;;;;;;26.90;17.13;;;0.80;60.00;;;;;;5051361;28;20444;-63
2022/12/14 12:03:00;;;;;;;26.97;17.47;;;0.80;60.10;;;;;;5051009;28;20520;-63
2022/12/14 12:05:29;;;;;;;20.57;15.67;;;0.80;59.80;;;;;;5050110;28;20440;-62
2022/12/14 12:07:57;;;;;;;21.60;14.90;;;1.00;59.40;;;;;;5040891;28;20520;-64
2022/12/14 12:10:35;;;;;;;21.50;15.53;;;1.00;58.70;;;;;;5034067;28;20491;-63
2022/12/14 12:13:03;;;;;;;26.27;16.97;;;1.00;58.20;;;;;;5039422;28;20479;-63
2022/12/14 12:15:35;;;;;;;23.43;16.10;;;1.00;58.70;;;;;;5033885;28;20547;-63
2022/12/14 12:18:18;;;;;;;23.30;15.23;;;1.00;58.70;;;;;;5040823;28;20460;-63
2022/12/14 12:21:00;;;;;;;22.37;15.77;;;1.00;58.20;;;;;;5050232;28;20428;-62
2022/12/14 12:23:36;;;;;;;24.77;16.37;;;1.00;58.10;;;;;;5049555;28;20436;-63
2022/12/14 12:26:21;;;;;;;23.50;15.77;;;1.00;59.00;;;;;;5048568;28;20433;-63
2022/12/14 12:29:01;;;;;;;21.80;16.10;;;1.10;58.40;;;;;;5039270;28;20425;-63
2022/12/14 12:31:47;;;;;;;25.07;17.20;;;0.90;58.60;;;;;;5048399;28;20452;-63
2022/12/14 12:34:22;;;;;;;25.07;15.80;;;1.00;58.60;;;;;;5049370;28;20472;-64
2022/12/14 12:36:49;;;;;;;24.10;16.87;;;1.10;58.70;;;;;;5049845;28;20440;-64
2022/12/14 12:39:17;;;;;;;30.37;16.77;;;1.10;58.00;;;;;;5033668;28;20458;-62
2022/12/14 12:42:06;;;;;;;23.80;15.20;;;1.00;58.00;;;;;;5039018;28;20464;-65
2022/12/14 12:44:37;;;;;;;25.27;16.73;;;1.00;58.40;;;;;;5052892;28;20477;-64
2022/12/14 12:47:13;;;;;;;24.57;16.17;;;1.20;58.00;;;;;;5045777;28;20467;-63
2022/12/14 12:49:38;;;;;;;27.57;17.97;;;1.10;58.20;;;;;;5050723;28;20439;-64
2022/12/14 12:52:16;;;;;;;25.83;17.43;;;1.20;58.50;;;;;;5040689;28;20517;-62
2022/12/14 12:55:09;;;;;;;26.13;17.97;;;1.00;58.70;;;;;;5038642;28;20188;-63
2022/12/14 12:57:43;;;;;;;26.43;18.23;;;1.10;58.00;;;;;;5050615;28;20437;-63
2022/12/14 13:00:17;;;;;;;25.33;18.03;;;1.00;58.60;;;;;;5046285;28;20435;-63
2022/12/14 13:03:19;;;;;;;31.53;19.07;;;1.00;59.30;;;;;;5046642;28;20432;-63
2022/12/14 13:05:45;;;;;;;28.30;17.53;;;0.90;59.20;;;;;;5045346;28;20824;-63
2022/12/14 13:08:19;;;;;;;29.23;19.17;;;0.90;59.70;;;;;;5050661;28;20420;-62
2022/12/14 13:10:47;;;;;;;23.37;17.27;;;1.00;59.70;;;;;;5051043;28;20468;-63